Astra — PB4187 — position and weather

sailwx.info

Track history (hours):
 
Tides and Currents Weather Stations Pressure Air Temp Water Temp Dewpoint Dewpoint Depression Visibility Wind Speed Wind Dir Waves Ship Positions

Astra

Last reported at 2016-Jun-29 13:16 UTC. Time now 2016-Jun-29 20:07 UTC.
Position N 51°49' E 004°39'.

Length 110 m; draft 0.1 m.

Type: Tanker. MMSI: 244650752.

Date/timePositionNaut miles runAvg speedWind from/ knotsBaromVisibWave heightAir tempDewpointWater temp
2016-Jun-29 13:16N 51°49' E 004°39'219 5.6
2016-Jun-27 22:20N 48°58' E 008°13'3 3.9
2016-Jun-27 21:33N 48°59' E 008°17'4 3.7
2016-Jun-27 20:33N 49°03' E 008°19'4 3.8
2016-Jun-27 19:33N 49°06' E 008°22'4 4.0
2016-Jun-27 18:33N 49°10' E 008°22'4 3.8
2016-Jun-27 17:33N 49°14' E 008°23'1 1.3
2016-Jun-27 16:33N 49°15' E 008°25'0 0.0
2016-Jun-27 15:33N 49°15' E 008°25'0 0.0
2016-Jun-27 14:33N 49°15' E 008°25'3 2.7
2016-Jun-27 13:33N 49°17' E 008°28'3 3.0
2016-Jun-27 12:33N 49°20' E 008°27'  
2016-Jun-24 16:22N 50°40' E 007°11'3 4.2
2016-Jun-24 15:33N 50°43' E 007°08'4 3.9
2016-Jun-24 14:33N 50°46' E 007°04'4 4.0
2016-Jun-24 13:31N 50°49' E 007°01'0 0.2
2016-Jun-24 12:31N 50°49' E 007°00'0 0.0
2016-Jun-24 11:30N 50°49' E 007°00'0 0.0
2016-Jun-24 10:29N 50°49' E 007°00'0 0.0
2016-Jun-24 09:33N 50°49' E 007°00'0 0.0
2016-Jun-24 08:32N 50°49' E 007°00'0 0.0
2016-Jun-24 07:32N 50°49' E 007°00'0 0.0
2016-Jun-24 04:30N 50°49' E 007°00'0 0.0
2016-Jun-24 03:29N 50°49' E 007°00'0 0.0
2016-Jun-24 02:24N 50°49' E 007°00'0 0.0
2016-Jun-24 01:33N 50°49' E 007°00'0 0.0
2016-Jun-24 00:33N 50°49' E 007°00'2 0.9
2016-Jun-23 22:33N 50°48' E 007°02'104 7.9
2016-Jun-23 09:31N 49°20' E 008°28'8 8.5
2016-Jun-23 08:33N 49°12' E 008°23'1110.5
2016-Jun-23 07:33N 49°02' E 008°18'  
Track history (hours):
 
Tides and Currents Weather Stations Pressure Air Temp Water Temp Dewpoint Dewpoint Depression Visibility Wind Speed Wind Dir Waves Ship Positions

Astra

Last reported at 2016-Jun-29 13:16 UTC. Time now 2016-Jun-29 20:07 UTC.
Position N 51°49' E 004°39'.

Length 110 m; draft 0.1 m.

Type: Tanker. MMSI: 244650752.

Date/timePositionNaut miles runAvg speedWind from/ knotsBaromVisibWave heightAir tempDewpointWater temp
2016-Jun-29 13:16N 51°49' E 004°39'219 5.6
2016-Jun-27 22:20N 48°58' E 008°13'3 3.9
2016-Jun-27 21:33N 48°59' E 008°17'4 3.7
2016-Jun-27 20:33N 49°03' E 008°19'4 3.8
2016-Jun-27 19:33N 49°06' E 008°22'4 4.0
2016-Jun-27 18:33N 49°10' E 008°22'4 3.8
2016-Jun-27 17:33N 49°14' E 008°23'1 1.3
2016-Jun-27 16:33N 49°15' E 008°25'0 0.0
2016-Jun-27 15:33N 49°15' E 008°25'0 0.0
2016-Jun-27 14:33N 49°15' E 008°25'3 2.7
2016-Jun-27 13:33N 49°17' E 008°28'3 3.0
2016-Jun-27 12:33N 49°20' E 008°27'  
2016-Jun-24 16:22N 50°40' E 007°11'3 4.2
2016-Jun-24 15:33N 50°43' E 007°08'4 3.9
2016-Jun-24 14:33N 50°46' E 007°04'4 4.0
2016-Jun-24 13:31N 50°49' E 007°01'0 0.2
2016-Jun-24 12:31N 50°49' E 007°00'0 0.0
2016-Jun-24 11:30N 50°49' E 007°00'0 0.0
2016-Jun-24 10:29N 50°49' E 007°00'0 0.0
2016-Jun-24 09:33N 50°49' E 007°00'0 0.0
2016-Jun-24 08:32N 50°49' E 007°00'0 0.0
2016-Jun-24 07:32N 50°49' E 007°00'0 0.0
2016-Jun-24 04:30N 50°49' E 007°00'0 0.0
2016-Jun-24 03:29N 50°49' E 007°00'0 0.0
2016-Jun-24 02:24N 50°49' E 007°00'0 0.0
2016-Jun-24 01:33N 50°49' E 007°00'0 0.0
2016-Jun-24 00:33N 50°49' E 007°00'2 0.9
2016-Jun-23 22:33N 50°48' E 007°02'104 7.9
2016-Jun-23 09:31N 49°20' E 008°28'8 8.5
2016-Jun-23 08:33N 49°12' E 008°23'1110.5
2016-Jun-23 07:33N 49°02' E 008°18'  

Dump ship's entire track history